sensor_id;sensor_type;location;lat;lon;timestamp;pressure;altitude;pressure_sealevel;temperature;humidity
34034;BME280;63481;52.588;22.472;2023-08-17T00:00:27;100524.70;;;22.26;77.07
34034;BME280;63481;52.588;22.472;2023-08-17T00:01:19;100524.73;;;22.19;77.20
34034;BME280;63481;52.588;22.472;2023-08-17T00:01:52;100524.09;;;22.16;77.34
34034;BME280;63481;52.588;22.472;2023-08-17T00:02:24;100521.92;;;22.10;77.46
34034;BME280;63481;52.588;22.472;2023-08-17T00:02:56;100519.38;;;22.06;77.56
34034;BME280;63481;52.588;22.472;2023-08-17T00:03:29;100519.66;;;22.02;77.78
34034;BME280;63481;52.588;22.472;2023-08-17T00:04:01;100522.55;;;22.01;78.01
34034;BME280;63481;52.588;22.472;2023-08-17T00:04:33;100520.70;;;22.00;77.97
34034;BME280;63481;52.588;22.472;2023-08-17T00:05:05;100519.47;;;21.97;78.12
34034;BME280;63481;52.588;22.472;2023-08-17T00:05:40;100521.09;;;21.88;78.89
34034;BME280;63481;52.588;22.472;2023-08-17T00:06:12;100522.77;;;21.75;79.35
34034;BME280;63481;52.588;22.472;2023-08-17T00:06:44;100523.70;;;21.70;79.82
34034;BME280;63481;52.588;22.472;2023-08-17T00:07:18;100519.46;;;21.69;79.88
34034;BME280;63481;52.588;22.472;2023-08-17T00:07:50;100521.36;;;21.57;80.44
34034;BME280;63481;52.588;22.472;2023-08-17T00:08:22;100523.00;;;21.48;80.95
34034;BME280;63481;52.588;22.472;2023-08-17T00:08:55;100518.66;;;21.52;81.17
34034;BME280;63481;52.588;22.472;2023-08-17T00:09:27;100517.67;;;21.61;80.82
34034;BME280;63481;52.588;22.472;2023-08-17T00:09:59;100520.61;;;21.63;80.49
34034;BME280;63481;52.588;22.472;2023-08-17T00:10:31;100522.03;;;21.63;80.51
34034;BME280;63481;52.588;22.472;2023-08-17T00:11:04;100520.79;;;21.63;80.53
34034;BME280;63481;52.588;22.472;2023-08-17T00:11:36;100517.96;;;21.63;80.49
34034;BME280;63481;52.588;22.472;2023-08-17T00:12:08;100522.56;;;21.66;80.43
34034;BME280;63481;52.588;22.472;2023-08-17T00:12:40;100520.17;;;21.68;80.45
34034;BME280;63481;52.588;22.472;2023-08-17T00:13:12;100520.11;;;21.64;80.91
34034;BME280;63481;52.588;22.472;2023-08-17T00:13:44;100520.39;;;21.65;80.78
34034;BME280;63481;52.588;22.472;2023-08-17T00:14:16;100521.26;;;21.65;80.56
34034;BME280;63481;52.588;22.472;2023-08-17T00:14:48;100519.63;;;21.68;80.55
34034;BME280;63481;52.588;22.472;2023-08-17T00:15:20;100519.41;;;21.67;80.45
34034;BME280;63481;52.588;22.472;2023-08-17T00:15:52;100518.16;;;21.67;80.55
34034;BME280;63481;52.588;22.472;2023-08-17T00:16:24;100519.30;;;21.66;80.51
34034;BME280;63481;52.588;22.472;2023-08-17T00:16:56;100519.79;;;21.69;80.63
34034;BME280;63481;52.588;22.472;2023-08-17T00:17:28;100519.99;;;21.75;80.38
34034;BME280;63481;52.588;22.472;2023-08-17T00:18:02;100515.70;;;21.78;80.03
34034;BME280;63481;52.588;22.472;2023-08-17T00:18:34;100512.45;;;21.76;80.11
34034;BME280;63481;52.588;22.472;2023-08-17T00:19:06;100512.95;;;21.76;79.94
34034;BME280;63481;52.588;22.472;2023-08-17T00:19:38;100519.79;;;21.74;80.00
34034;BME280;63481;52.588;22.472;2023-08-17T00:20:10;100518.16;;;21.72;80.06
34034;BME280;63481;52.588;22.472;2023-08-17T00:20:42;100517.61;;;21.71;80.24
34034;BME280;63481;52.588;22.472;2023-08-17T00:21:15;100516.52;;;21.70;80.45
34034;BME280;63481;52.588;22.472;2023-08-17T00:21:48;100517.13;;;21.70;80.27
34034;BME280;63481;52.588;22.472;2023-08-17T00:22:20;100517.95;;;21.70;80.28
34034;BME280;63481;52.588;22.472;2023-08-17T00:22:52;100519.47;;;21.69;80.55
34034;BME280;63481;52.588;22.472;2023-08-17T00:23:24;100518.05;;;21.66;80.92
34034;BME280;63481;52.588;22.472;2023-08-17T00:23:56;100517.90;;;21.62;81.11
34034;BME280;63481;52.588;22.472;2023-08-17T00:24:29;100517.34;;;21.61;81.22
34034;BME280;63481;52.588;22.472;2023-08-17T00:25:01;100516.70;;;21.60;81.18
34034;BME280;63481;52.588;22.472;2023-08-17T00:25:36;100514.52;;;21.60;81.07
34034;BME280;63481;52.588;22.472;2023-08-17T00:26:08;100516.64;;;21.60;81.24
34034;BME280;63481;52.588;22.472;2023-08-17T00:26:40;100517.52;;;21.61;81.13
34034;BME280;63481;52.588;22.472;2023-08-17T00:27:13;100515.11;;;21.62;80.85
34034;BME280;63481;52.588;22.472;2023-08-17T00:27:45;100518.60;;;21.65;80.99
34034;BME280;63481;52.588;22.472;2023-08-17T00:28:16;100519.74;;;21.65;81.08
34034;BME280;63481;52.588;22.472;2023-08-17T00:28:49;100523.48;;;21.70;81.07
34034;BME280;63481;52.588;22.472;2023-08-17T00:29:21;100531.19;;;21.67;81.39
34034;BME280;63481;52.588;22.472;2023-08-17T00:29:53;100534.23;;;21.60;81.32
34034;BME280;63481;52.588;22.472;2023-08-17T00:30:25;100535.60;;;21.54;81.48
34034;BME280;63481;52.588;22.472;2023-08-17T00:30:57;100533.14;;;21.52;81.34
34034;BME280;63481;52.588;22.472;2023-08-17T00:31:29;100529.03;;;21.52;81.68
34034;BME280;63481;52.588;22.472;2023-08-17T00:32:02;100521.05;;;21.48;81.97
34034;BME280;63481;52.588;22.472;2023-08-17T00:32:35;100523.91;;;21.38;82.35
34034;BME280;63481;52.588;22.472;2023-08-17T00:33:07;100520.01;;;21.33;82.56
34034;BME280;63481;52.588;22.472;2023-08-17T00:33:39;100519.67;;;21.32;82.66
34034;BME280;63481;52.588;22.472;2023-08-17T00:34:13;100518.86;;;21.31;82.56
34034;BME280;63481;52.588;22.472;2023-08-17T00:34:45;100521.25;;;21.30;82.42
34034;BME280;63481;52.588;22.472;2023-08-17T00:35:17;100519.85;;;21.34;82.85
34034;BME280;63481;52.588;22.472;2023-08-17T00:35:50;100516.05;;;21.44;82.64
34034;BME280;63481;52.588;22.472;2023-08-17T00:36:23;100516.00;;;21.49;82.26
34034;BME280;63481;52.588;22.472;2023-08-17T00:36:55;100518.16;;;21.46;82.13
34034;BME280;63481;52.588;22.472;2023-08-17T00:37:27;100515.13;;;21.44;82.03
34034;BME280;63481;52.588;22.472;2023-08-17T00:37:59;100520.87;;;21.42;82.26
34034;BME280;63481;52.588;22.472;2023-08-17T00:38:32;100524.02;;;21.41;82.37
34034;BME280;63481;52.588;22.472;2023-08-17T00:39:04;100523.48;;;21.41;82.57
34034;BME280;63481;52.588;22.472;2023-08-17T00:39:36;100526.73;;;21.40;82.55
34034;BME280;63481;52.588;22.472;2023-08-17T00:40:09;100524.67;;;21.37;82.68
34034;BME280;63481;52.588;22.472;2023-08-17T00:40:41;100529.99;;;21.34;82.94
34034;BME280;63481;52.588;22.472;2023-08-17T00:41:13;100527.70;;;21.35;83.15
34034;BME280;63481;52.588;22.472;2023-08-17T00:41:46;100525.86;;;21.37;82.98
34034;BME280;63481;52.588;22.472;2023-08-17T00:42:18;100522.69;;;21.39;82.74
34034;BME280;63481;52.588;22.472;2023-08-17T00:42:50;100522.84;;;21.38;82.86
34034;BME280;63481;52.588;22.472;2023-08-17T00:43:23;100527.21;;;21.36;82.72
34034;BME280;63481;52.588;22.472;2023-08-17T00:43:55;100528.37;;;21.36;82.83
34034;BME280;63481;52.588;22.472;2023-08-17T00:44:30;100527.02;;;21.36;82.78
34034;BME280;63481;52.588;22.472;2023-08-17T00:45:02;100525.76;;;21.35;82.87
34034;BME280;63481;52.588;22.472;2023-08-17T00:45:35;100523.70;;;21.38;82.91
34034;BME280;63481;52.588;22.472;2023-08-17T00:46:08;100526.41;;;21.42;82.68
34034;BME280;63481;52.588;22.472;2023-08-17T00:46:40;100527.00;;;21.42;82.62
34034;BME280;63481;52.588;22.472;2023-08-17T00:47:13;100527.61;;;21.41;82.60
34034;BME280;63481;52.588;22.472;2023-08-17T00:47:46;100524.63;;;21.40;82.56
34034;BME280;63481;52.588;22.472;2023-08-17T00:48:18;100528.42;;;21.39;82.50
34034;BME280;63481;52.588;22.472;2023-08-17T00:48:51;100526.03;;;21.41;82.57
34034;BME280;63481;52.588;22.472;2023-08-17T00:49:23;100525.16;;;21.42;82.60
34034;BME280;63481;52.588;22.472;2023-08-17T00:49:56;100524.67;;;21.43;82.64
34034;BME280;63481;52.588;22.472;2023-08-17T00:50:29;100522.28;;;21.41;82.73
34034;BME280;63481;52.588;22.472;2023-08-17T00:51:01;100524.67;;;21.40;82.63
34034;BME280;63481;52.588;22.472;2023-08-17T00:51:34;100524.35;;;21.38;82.86
34034;BME280;63481;52.588;22.472;2023-08-17T00:52:07;100523.70;;;21.37;82.66
34034;BME280;63481;52.588;22.472;2023-08-17T00:52:41;100526.52;;;21.36;82.65
34034;BME280;63481;52.588;22.472;2023-08-17T00:53:14;100523.53;;;21.38;82.86
34034;BME280;63481;52.588;22.472;2023-08-17T00:53:48;100523.48;;;21.42;82.65
34034;BME280;63481;52.588;22.472;2023-08-17T00:54:24;100522.67;;;21.41;82.58
34034;BME280;63481;52.588;22.472;2023-08-17T00:54:58;100524.57;;;21.38;82.30
34034;BME280;63481;52.588;22.472;2023-08-17T00:55:35;100524.89;;;21.38;82.32
34034;BME280;63481;52.588;22.472;2023-08-17T00:56:08;100527.17;;;21.36;82.45
34034;BME280;63481;52.588;22.472;2023-08-17T00:56:40;100527.86;;;21.34;82.36
34034;BME280;63481;52.588;22.472;2023-08-17T00:57:12;100525.97;;;21.32;82.52
34034;BME280;63481;52.588;22.472;2023-08-17T00:57:44;100524.28;;;21.31;82.38
34034;BME280;63481;52.588;22.472;2023-08-17T00:58:17;100525.11;;;21.31;82.45
34034;BME280;63481;52.588;22.472;2023-08-17T00:58:49;100523.48;;;21.32;82.47
34034;BME280;63481;52.588;22.472;2023-08-17T00:59:22;100523.05;;;21.32;82.43
34034;BME280;63481;52.588;22.472;2023-08-17T00:59:55;100525.48;;;21.32;82.44
34034;BME280;63481;52.588;22.472;2023-08-17T01:00:27;100525.21;;;21.32;82.40
34034;BME280;63481;52.588;22.472;2023-08-17T01:01:00;100523.95;;;21.31;82.29
34034;BME280;63481;52.588;22.472;2023-08-17T01:01:32;100523.75;;;21.32;82.41
34034;BME280;63481;52.588;22.472;2023-08-17T01:02:04;100521.15;;;21.32;82.22
34034;BME280;63481;52.588;22.472;2023-08-17T01:02:36;100521.80;;;21.31;82.42
34034;BME280;63481;52.588;22.472;2023-08-17T01:03:09;100519.95;;;21.30;82.49
34034;BME280;63481;52.588;22.472;2023-08-17T01:03:43;100520.55;;;21.30;82.59
34034;BME280;63481;52.588;22.472;2023-08-17T01:04:15;100518.16;;;21.30;82.51
34034;BME280;63481;52.588;22.472;2023-08-17T01:04:49;100523.90;;;21.29;82.57
34034;BME280;63481;52.588;22.472;2023-08-17T01:05:23;100521.30;;;21.25;82.68
34034;BME280;63481;52.588;22.472;2023-08-17T01:05:56;100521.56;;;21.22;83.03
34034;BME280;63481;52.588;22.472;2023-08-17T01:06:29;100524.60;;;21.24;83.14
34034;BME280;63481;52.588;22.472;2023-08-17T01:07:01;100525.27;;;21.30;82.88
34034;BME280;63481;52.588;22.472;2023-08-17T01:07:34;100526.45;;;21.35;82.69
34034;BME280;63481;52.588;22.472;2023-08-17T01:08:06;100522.79;;;21.43;82.40
34034;BME280;63481;52.588;22.472;2023-08-17T01:08:42;100525.21;;;21.45;82.18
34034;BME280;63481;52.588;22.472;2023-08-17T01:09:15;100525.16;;;21.45;82.18
34034;BME280;63481;52.588;22.472;2023-08-17T01:09:47;100523.48;;;21.44;82.01
34034;BME280;63481;52.588;22.472;2023-08-17T01:10:19;100523.98;;;21.39;82.36
34034;BME280;63481;52.588;22.472;2023-08-17T01:11:47;100519.67;;;21.25;83.06
34034;BME280;63481;52.588;22.472;2023-08-17T01:12:26;100520.91;;;21.20;83.53
34034;BME280;63481;52.588;22.472;2023-08-17T01:13:09;100519.29;;;21.23;83.50
34034;BME280;63481;52.588;22.472;2023-08-17T01:15:36;100518.81;;;21.22;83.21
34034;BME280;63481;52.588;22.472;2023-08-17T01:16:12;100518.58;;;21.20;83.41
34034;BME280;63481;52.588;22.472;2023-08-17T01:18:12;100517.44;;;21.14;83.49
34034;BME280;63481;52.588;22.472;2023-08-17T01:18:50;100520.14;;;21.10;83.74
34034;BME280;63481;52.588;22.472;2023-08-17T01:19:27;100522.91;;;21.11;83.59
34034;BME280;63481;52.588;22.472;2023-08-17T01:20:00;100520.64;;;21.14;83.42
34034;BME280;63481;52.588;22.472;2023-08-17T01:20:36;100519.65;;;21.15;83.66
34034;BME280;63481;52.588;22.472;2023-08-17T01:21:10;100524.71;;;21.16;83.54
34034;BME280;63481;52.588;22.472;2023-08-17T01:21:50;100522.48;;;21.16;83.43
34034;BME280;63481;52.588;22.472;2023-08-17T01:22:26;100526.45;;;21.17;83.42
34034;BME280;63481;52.588;22.472;2023-08-17T01:23:06;100522.53;;;21.14;83.20
34034;BME280;63481;52.588;22.472;2023-08-17T01:23:38;100526.88;;;21.14;83.32
34034;BME280;63481;52.588;22.472;2023-08-17T01:24:11;100526.92;;;21.16;83.31
34034;BME280;63481;52.588;22.472;2023-08-17T01:24:43;100524.70;;;21.16;83.22
34034;BME280;63481;52.588;22.472;2023-08-17T01:25:16;100529.75;;;21.14;83.40
34034;BME280;63481;52.588;22.472;2023-08-17T01:25:48;100534.02;;;21.08;83.65
34034;BME280;63481;52.588;22.472;2023-08-17T01:26:20;100528.48;;;20.97;84.49
34034;BME280;63481;52.588;22.472;2023-08-17T01:26:52;100530.25;;;20.85;85.16
34034;BME280;63481;52.588;22.472;2023-08-17T01:27:32;100531.19;;;20.73;85.75
34034;BME280;63481;52.588;22.472;2023-08-17T01:28:05;100530.98;;;20.76;85.89
34034;BME280;63481;52.588;22.472;2023-08-17T01:28:37;100529.48;;;20.82;85.59
34034;BME280;63481;52.588;22.472;2023-08-17T01:29:10;100529.33;;;20.89;85.34
34034;BME280;63481;52.588;22.472;2023-08-17T01:29:42;100529.61;;;20.93;85.10
34034;BME280;63481;52.588;22.472;2023-08-17T01:30:16;100531.07;;;20.93;84.99
34034;BME280;63481;52.588;22.472;2023-08-17T01:31:11;100534.17;;;20.92;84.93
34034;BME280;63481;52.588;22.472;2023-08-17T01:31:53;100535.73;;;20.91;84.99
34034;BME280;63481;52.588;22.472;2023-08-17T01:32:31;100533.13;;;20.90;84.88
34034;BME280;63481;52.588;22.472;2023-08-17T01:33:08;100533.95;;;20.91;84.85
34034;BME280;63481;52.588;22.472;2023-08-17T01:33:49;100535.52;;;20.92;84.91
34034;BME280;63481;52.588;22.472;2023-08-17T01:34:22;100535.90;;;20.93;84.97
34034;BME280;63481;52.588;22.472;2023-08-17T01:35:04;100536.14;;;20.95;84.83
34034;BME280;63481;52.588;22.472;2023-08-17T01:36:01;100535.70;;;20.95;84.83
34034;BME280;63481;52.588;22.472;2023-08-17T01:36:39;100540.85;;;20.97;84.92
34034;BME280;63481;52.588;22.472;2023-08-17T01:37:17;100538.20;;;20.98;84.77
34034;BME280;63481;52.588;22.472;2023-08-17T01:37:50;100537.16;;;20.99;84.76
34034;BME280;63481;52.588;22.472;2023-08-17T01:38:25;100540.38;;;21.00;84.64
34034;BME280;63481;52.588;22.472;2023-08-17T01:38:59;100537.92;;;21.01;84.47
34034;BME280;63481;52.588;22.472;2023-08-17T01:39:39;100539.52;;;21.00;84.36
34034;BME280;63481;52.588;22.472;2023-08-17T01:40:15;100538.42;;;21.04;84.30
34034;BME280;63481;52.588;22.472;2023-08-17T01:40:50;100540.02;;;21.06;84.05
34034;BME280;63481;52.588;22.472;2023-08-17T01:41:23;100544.29;;;21.02;84.15
34034;BME280;63481;52.588;22.472;2023-08-17T01:41:57;100540.65;;;21.02;84.21
34034;BME280;63481;52.588;22.472;2023-08-17T01:42:30;100544.17;;;21.01;84.23
34034;BME280;63481;52.588;22.472;2023-08-17T01:43:03;100544.11;;;20.97;84.46
34034;BME280;63481;52.588;22.472;2023-08-17T01:43:35;100545.73;;;20.96;84.68
34034;BME280;63481;52.588;22.472;2023-08-17T01:44:07;100542.81;;;20.95;84.62
34034;BME280;63481;52.588;22.472;2023-08-17T01:44:39;100542.89;;;20.93;84.74
34034;BME280;63481;52.588;22.472;2023-08-17T01:45:11;100542.56;;;20.91;84.94
34034;BME280;63481;52.588;22.472;2023-08-17T01:45:44;100543.81;;;20.88;84.99
34034;BME280;63481;52.588;22.472;2023-08-17T01:46:17;100543.05;;;20.86;85.15
34034;BME280;63481;52.588;22.472;2023-08-17T01:46:49;100542.83;;;20.86;85.28
34034;BME280;63481;52.588;22.472;2023-08-17T01:47:22;100541.86;;;20.91;85.13
34034;BME280;63481;52.588;22.472;2023-08-17T01:47:57;100541.06;;;20.93;85.10
34034;BME280;63481;52.588;22.472;2023-08-17T01:48:29;100543.88;;;20.93;84.89
34034;BME280;63481;52.588;22.472;2023-08-17T01:49:01;100543.66;;;20.92;85.06
34034;BME280;63481;52.588;22.472;2023-08-17T01:49:33;100542.85;;;20.94;84.97
34034;BME280;63481;52.588;22.472;2023-08-17T01:50:05;100544.92;;;20.96;84.81
34034;BME280;63481;52.588;22.472;2023-08-17T01:50:37;100543.41;;;20.99;84.69
34034;BME280;63481;52.588;22.472;2023-08-17T01:51:11;100545.90;;;21.01;84.69
34034;BME280;63481;52.588;22.472;2023-08-17T01:51:43;100544.16;;;20.99;84.59
34034;BME280;63481;52.588;22.472;2023-08-17T01:52:15;100543.55;;;20.97;84.64
34034;BME280;63481;52.588;22.472;2023-08-17T01:52:47;100541.66;;;20.96;84.81
34034;BME280;63481;52.588;22.472;2023-08-17T01:53:19;100543.29;;;20.96;84.87
34034;BME280;63481;52.588;22.472;2023-08-17T01:53:51;100543.46;;;20.99;84.77
34034;BME280;63481;52.588;22.472;2023-08-17T01:54:23;100542.85;;;20.95;84.75
34034;BME280;63481;52.588;22.472;2023-08-17T01:54:56;100542.48;;;20.94;84.74
34034;BME280;63481;52.588;22.472;2023-08-17T01:55:28;100541.60;;;20.93;84.78
34034;BME280;63481;52.588;22.472;2023-08-17T01:56:00;100542.58;;;20.92;84.88
34034;BME280;63481;52.588;22.472;2023-08-17T01:56:32;100540.94;;;20.93;84.97
34034;BME280;63481;52.588;22.472;2023-08-17T01:57:04;100542.74;;;20.92;84.96
34034;BME280;63481;52.588;22.472;2023-08-17T01:57:36;100543.93;;;20.92;85.00
34034;BME280;63481;52.588;22.472;2023-08-17T01:58:08;100543.60;;;20.93;85.23
34034;BME280;63481;52.588;22.472;2023-08-17T01:58:41;100543.01;;;20.93;85.18
34034;BME280;63481;52.588;22.472;2023-08-17T01:59:13;100542.42;;;20.95;85.27
34034;BME280;63481;52.588;22.472;2023-08-17T01:59:45;100545.08;;;20.95;85.44
34034;BME280;63481;52.588;22.472;2023-08-17T02:00:17;100547.36;;;20.97;85.35
34034;BME280;63481;52.588;22.472;2023-08-17T02:00:49;100545.96;;;21.00;85.32
34034;BME280;63481;52.588;22.472;2023-08-17T02:01:21;100545.14;;;21.02;85.21
34034;BME280;63481;52.588;22.472;2023-08-17T02:01:53;100545.42;;;21.02;85.03
34034;BME280;63481;52.588;22.472;2023-08-17T02:02:25;100546.02;;;21.01;84.82
34034;BME280;63481;52.588;22.472;2023-08-17T02:02:57;100546.77;;;21.00;84.71
34034;BME280;63481;52.588;22.472;2023-08-17T02:03:30;100549.10;;;20.99;84.77
34034;BME280;63481;52.588;22.472;2023-08-17T02:04:03;100551.34;;;20.86;85.02
34034;BME280;63481;52.588;22.472;2023-08-17T02:04:36;100550.73;;;20.68;85.85
34034;BME280;63481;52.588;22.472;2023-08-17T02:05:09;100550.94;;;20.54;86.82
34034;BME280;63481;52.588;22.472;2023-08-17T02:05:46;100549.55;;;20.46;87.49
34034;BME280;63481;52.588;22.472;2023-08-17T02:06:19;100551.85;;;20.40;88.00
34034;BME280;63481;52.588;22.472;2023-08-17T02:06:51;100551.23;;;20.37;88.29
34034;BME280;63481;52.588;22.472;2023-08-17T02:07:23;100549.03;;;20.40;88.34
34034;BME280;63481;52.588;22.472;2023-08-17T02:07:55;100550.34;;;20.43;88.09
34034;BME280;63481;52.588;22.472;2023-08-17T02:08:27;100550.31;;;20.48;87.81
34034;BME280;63481;52.588;22.472;2023-08-17T02:08:59;100549.05;;;20.53;87.57
34034;BME280;63481;52.588;22.472;2023-08-17T02:09:32;100548.51;;;20.56;87.27
34034;BME280;63481;52.588;22.472;2023-08-17T02:10:04;100551.26;;;20.64;87.02
34034;BME280;63481;52.588;22.472;2023-08-17T02:10:38;100548.13;;;20.68;86.55
34034;BME280;63481;52.588;22.472;2023-08-17T02:11:10;100551.98;;;20.68;86.34
34034;BME280;63481;52.588;22.472;2023-08-17T02:11:44;100548.69;;;20.68;86.30
34034;BME280;63481;52.588;22.472;2023-08-17T02:12:16;100550.41;;;20.69;86.19
34034;BME280;63481;52.588;22.472;2023-08-17T02:12:48;100547.81;;;20.68;86.18
34034;BME280;63481;52.588;22.472;2023-08-17T02:13:20;100546.08;;;20.68;86.31
34034;BME280;63481;52.588;22.472;2023-08-17T02:13:52;100547.00;;;20.69;86.33
34034;BME280;63481;52.588;22.472;2023-08-17T02:14:24;100544.34;;;20.69;86.18
34034;BME280;63481;52.588;22.472;2023-08-17T02:14:56;100547.33;;;20.70;86.09
34034;BME280;63481;52.588;22.472;2023-08-17T02:15:28;100548.02;;;20.69;85.86
34034;BME280;63481;52.588;22.472;2023-08-17T02:16:00;100545.95;;;20.66;85.74
34034;BME280;63481;52.588;22.472;2023-08-17T02:16:32;100543.39;;;20.60;85.72
34034;BME280;63481;52.588;22.472;2023-08-17T02:17:04;100544.30;;;20.59;85.87
34034;BME280;63481;52.588;22.472;2023-08-17T02:17:37;100542.50;;;20.56;85.82
34034;BME280;63481;52.588;22.472;2023-08-17T02:18:09;100543.84;;;20.55;85.94
34034;BME280;63481;52.588;22.472;2023-08-17T02:18:41;100543.30;;;20.54;86.15
34034;BME280;63481;52.588;22.472;2023-08-17T02:19:13;100541.41;;;20.55;86.14
34034;BME280;63481;52.588;22.472;2023-08-17T02:19:45;100544.02;;;20.56;86.14
34034;BME280;63481;52.588;22.472;2023-08-17T02:20:20;100543.85;;;20.58;86.16
34034;BME280;63481;52.588;22.472;2023-08-17T02:20:52;100542.34;;;20.58;86.09
34034;BME280;63481;52.588;22.472;2023-08-17T02:21:24;100545.94;;;20.59;85.95
34034;BME280;63481;52.588;22.472;2023-08-17T02:21:56;100542.80;;;20.60;85.88
34034;BME280;63481;52.588;22.472;2023-08-17T02:22:28;100540.46;;;20.59;85.79
34034;BME280;63481;52.588;22.472;2023-08-17T02:23:00;100541.00;;;20.61;85.71
34034;BME280;63481;52.588;22.472;2023-08-17T02:23:32;100539.42;;;20.61;85.68
34034;BME280;63481;52.588;22.472;2023-08-17T02:24:05;100541.11;;;20.64;85.66
34034;BME280;63481;52.588;22.472;2023-08-17T02:24:37;100540.05;;;20.65;85.74
34034;BME280;63481;52.588;22.472;2023-08-17T02:25:09;100540.38;;;20.65;85.70
34034;BME280;63481;52.588;22.472;2023-08-17T02:25:41;100535.70;;;20.67;85.69
34034;BME280;63481;52.588;22.472;2023-08-17T02:26:14;100536.53;;;20.71;85.84
34034;BME280;63481;52.588;22.472;2023-08-17T02:26:46;100533.02;;;20.75;85.98
34034;BME280;63481;52.588;22.472;2023-08-17T02:27:18;100535.34;;;20.84;85.87
34034;BME280;63481;52.588;22.472;2023-08-17T02:27:50;100534.65;;;20.90;85.68
34034;BME280;63481;52.588;22.472;2023-08-17T02:28:22;100537.16;;;20.93;85.57
34034;BME280;63481;52.588;22.472;2023-08-17T02:28:54;100536.77;;;20.94;85.65
34034;BME280;63481;52.588;22.472;2023-08-17T02:29:26;100535.65;;;20.97;85.49
34034;BME280;63481;52.588;22.472;2023-08-17T02:29:58;100536.69;;;20.98;85.43
34034;BME280;63481;52.588;22.472;2023-08-17T02:30:30;100538.79;;;20.96;85.35
34034;BME280;63481;52.588;22.472;2023-08-17T02:31:04;100538.30;;;20.95;85.53
34034;BME280;63481;52.588;22.472;2023-08-17T02:31:36;100539.53;;;20.93;85.50
34034;BME280;63481;52.588;22.472;2023-08-17T02:32:08;100541.27;;;20.93;85.72
34034;BME280;63481;52.588;22.472;2023-08-17T02:32:40;100539.23;;;20.94;85.78
34034;BME280;63481;52.588;22.472;2023-08-17T02:33:12;100539.48;;;20.94;85.80
34034;BME280;63481;52.588;22.472;2023-08-17T02:33:44;100540.08;;;20.93;86.00
34034;BME280;63481;52.588;22.472;2023-08-17T02:34:16;100544.36;;;20.92;86.02
34034;BME280;63481;52.588;22.472;2023-08-17T02:34:48;100542.15;;;20.92;86.05
34034;BME280;63481;52.588;22.472;2023-08-17T02:35:20;100543.70;;;20.89;86.01
34034;BME280;63481;52.588;22.472;2023-08-17T02:35:52;100547.08;;;20.91;86.21
34034;BME280;63481;52.588;22.472;2023-08-17T02:36:24;100547.06;;;20.93;86.02
34034;BME280;63481;52.588;22.472;2023-08-17T02:36:56;100544.84;;;20.89;86.07
34034;BME280;63481;52.588;22.472;2023-08-17T02:37:28;100548.84;;;20.83;86.02
34034;BME280;63481;52.588;22.472;2023-08-17T02:38:00;100545.05;;;20.72;86.33
34034;BME280;63481;52.588;22.472;2023-08-17T02:38:33;100548.83;;;20.67;86.79
34034;BME280;63481;52.588;22.472;2023-08-17T02:39:05;100550.90;;;20.68;86.92
34034;BME280;63481;52.588;22.472;2023-08-17T02:39:37;100548.63;;;20.73;86.87
34034;BME280;63481;52.588;22.472;2023-08-17T02:40:09;100549.40;;;20.73;86.65
34034;BME280;63481;52.588;22.472;2023-08-17T02:40:41;100546.38;;;20.73;86.74
34034;BME280;63481;52.588;22.472;2023-08-17T02:41:13;100547.67;;;20.73;86.71
34034;BME280;63481;52.588;22.472;2023-08-17T02:41:46;100549.39;;;20.72;86.84
34034;BME280;63481;52.588;22.472;2023-08-17T02:42:20;100553.80;;;20.74;86.83
34034;BME280;63481;52.588;22.472;2023-08-17T02:42:52;100550.61;;;20.76;86.66
34034;BME280;63481;52.588;22.472;2023-08-17T02:43:24;100550.38;;;20.73;86.65
34034;BME280;63481;52.588;22.472;2023-08-17T02:43:56;100549.54;;;20.65;87.06
34034;BME280;63481;52.588;22.472;2023-08-17T02:44:28;100553.45;;;20.57;87.48
34034;BME280;63481;52.588;22.472;2023-08-17T02:45:01;100549.06;;;20.45;88.05
34034;BME280;63481;52.588;22.472;2023-08-17T02:45:35;100550.92;;;20.31;88.74
34034;BME280;63481;52.588;22.472;2023-08-17T02:46:07;100547.84;;;20.17;89.47
34034;BME280;63481;52.588;22.472;2023-08-17T02:46:39;100550.10;;;20.06;90.06
34034;BME280;63481;52.588;22.472;2023-08-17T02:47:11;100548.85;;;19.96;90.45
34034;BME280;63481;52.588;22.472;2023-08-17T02:47:43;100546.91;;;19.90;90.95
34034;BME280;63481;52.588;22.472;2023-08-17T02:48:15;100549.26;;;19.85;91.42
34034;BME280;63481;52.588;22.472;2023-08-17T02:48:47;100547.48;;;19.80;91.86
34034;BME280;63481;52.588;22.472;2023-08-17T02:49:19;100553.27;;;19.78;92.01
34034;BME280;63481;52.588;22.472;2023-08-17T02:49:52;100550.49;;;19.79;92.13
34034;BME280;63481;52.588;22.472;2023-08-17T02:50:24;100547.14;;;19.84;92.13
34034;BME280;63481;52.588;22.472;2023-08-17T02:50:56;100548.60;;;19.92;91.72
34034;BME280;63481;52.588;22.472;2023-08-17T02:51:28;100548.47;;;19.96;91.42
34034;BME280;63481;52.588;22.472;2023-08-17T02:52:00;100545.63;;;19.99;91.18
34034;BME280;63481;52.588;22.472;2023-08-17T02:52:32;100546.58;;;20.03;90.94
34034;BME280;63481;52.588;22.472;2023-08-17T02:53:04;100548.34;;;20.08;90.79
34034;BME280;63481;52.588;22.472;2023-08-17T02:53:37;100544.35;;;20.11;90.46
34034;BME280;63481;52.588;22.472;2023-08-17T02:54:09;100543.39;;;20.14;90.25
34034;BME280;63481;52.588;22.472;2023-08-17T02:54:41;100546.45;;;20.18;90.10
34034;BME280;63481;52.588;22.472;2023-08-17T02:55:13;100544.58;;;20.21;89.93